Aeroporto :
LOGIN :

Iscrizione | Disclaimer

   EN    FR    IT 

 










Sommario :    VFR   VFR Marginale   IFR   IFR Intensivo   IFR Molto Intensivo
Visibilità : 
Base nubi : 
>= 8 km
>= 3000ft
5 / 8 km
1000 / 3000 ft
1500m / 5 km
500 / 1000 ft
800 / 1500m
200 / 500 ft
< 800m
< 200 ft
Simboli :   Temporali  Nebbia  Neve Forte  Precipitazioni Forti  Vento > 20 kt
SIGMETs :   Varie  Temporali  Ghiacco  Turbolenza  Onda orograficha  Ceneri Vulcaniche






- Altitudine del aeroporto : 191 ft
- Codice IATA : RNB


ESDF - Ronneby

ULTIMO METAR :
  • 231220Z 29014KT 260V320 9999 SCT037 07/01 Q0996

METARs OBSOLETI :
  • 231150Z 28021KT 250V310 9999 SCT039 07/M00 Q0996
  • 231120Z 27018G29KT 240V300 9999 FEW035 07/01 Q0997
  • 231050Z 27014G27KT 230V290 9999 SCT031 06/02 Q0997
  • 231020Z 28017KT 250V310 9999 BKN030 06/02 Q0997
  • 230950Z 27019G32KT 240V300 9999 SCT032 06/01 Q0997

TAF TAF ESDF
Valido dal 23 a 12 ore il 23 a 21 ore UTC


231130Z 2312/2321 28017G27KT 9999 SCT030
TEMPO 2312/2317 SHRA BKN025CB
BECMG 2315/2317 28013KT



MetMap, La meteo Aeronautica in un colpo d'occhio ! - Copyright ORBIFLY Dicembre 2007 - Disclaimer

ORBIFLY MET'MAP TEAM :

Programmazione e sviluppo : Alexandra Zaïnal
Concezione : Baudouin d'Aumeries
Aiuto per la programmazione : Marc-Olivier Méhu
Supporto tecnico e logistico : Manuel Goepfert
Aiuto per la traduzione : Arnaldo La Scala

Contatto : metmap@orbifly.com




FONTI E CREDITI :

   NOAA